sensor_id;sensor_type;location;lat;lon;timestamp;P1;durP1;ratioP1;P2;durP2;ratioP2
59649;SDS011;46162;57.568;25.814;2023-03-08T00:01:28;6.28;;;2.80;;
59649;SDS011;46162;57.568;25.814;2023-03-08T00:03:57;7.35;;;3.80;;
59649;SDS011;46162;57.568;25.814;2023-03-08T00:06:26;8.68;;;3.70;;
59649;SDS011;46162;57.568;25.814;2023-03-08T00:08:55;7.18;;;3.60;;
59649;SDS011;46162;57.568;25.814;2023-03-08T00:11:27;8.25;;;3.72;;
59649;SDS011;46162;57.568;25.814;2023-03-08T00:13:57;7.97;;;3.97;;
59649;SDS011;46162;57.568;25.814;2023-03-08T00:16:27;8.15;;;4.03;;
59649;SDS011;46162;57.568;25.814;2023-03-08T00:18:56;9.98;;;4.50;;
59649;SDS011;46162;57.568;25.814;2023-03-08T00:21:25;8.93;;;3.83;;
59649;SDS011;46162;57.568;25.814;2023-03-08T00:23:53;8.07;;;3.83;;
59649;SDS011;46162;57.568;25.814;2023-03-08T00:26:22;9.63;;;3.92;;
59649;SDS011;46162;57.568;25.814;2023-03-08T00:28:53;8.85;;;3.95;;
59649;SDS011;46162;57.568;25.814;2023-03-08T00:31:21;9.05;;;3.85;;
59649;SDS011;46162;57.568;25.814;2023-03-08T00:33:52;8.50;;;4.03;;
59649;SDS011;46162;57.568;25.814;2023-03-08T00:36:21;8.80;;;4.20;;
59649;SDS011;46162;57.568;25.814;2023-03-08T00:38:50;13.20;;;5.15;;
59649;SDS011;46162;57.568;25.814;2023-03-08T00:41:19;9.52;;;4.75;;
59649;SDS011;46162;57.568;25.814;2023-03-08T00:43:49;8.45;;;4.43;;
59649;SDS011;46162;57.568;25.814;2023-03-08T00:46:19;7.30;;;3.67;;
59649;SDS011;46162;57.568;25.814;2023-03-08T00:48:48;9.65;;;5.00;;
59649;SDS011;46162;57.568;25.814;2023-03-08T00:51:18;9.85;;;5.25;;
59649;SDS011;46162;57.568;25.814;2023-03-08T00:53:48;8.25;;;4.60;;
59649;SDS011;46162;57.568;25.814;2023-03-08T00:56:17;9.98;;;4.78;;
59649;SDS011;46162;57.568;25.814;2023-03-08T00:58:46;10.27;;;4.55;;
59649;SDS011;46162;57.568;25.814;2023-03-08T01:01:16;12.10;;;5.55;;
59649;SDS011;46162;57.568;25.814;2023-03-08T01:03:49;9.52;;;5.35;;
59649;SDS011;46162;57.568;25.814;2023-03-08T01:06:20;8.10;;;4.78;;
59649;SDS011;46162;57.568;25.814;2023-03-08T01:08:50;12.43;;;4.95;;
59649;SDS011;46162;57.568;25.814;2023-03-08T01:11:19;14.63;;;5.70;;
59649;SDS011;46162;57.568;25.814;2023-03-08T01:13:50;13.05;;;5.78;;
59649;SDS011;46162;57.568;25.814;2023-03-08T01:16:21;10.70;;;5.32;;
59649;SDS011;46162;57.568;25.814;2023-03-08T01:18:53;10.63;;;4.95;;
59649;SDS011;46162;57.568;25.814;2023-03-08T01:23:52;9.35;;;5.28;;
59649;SDS011;46162;57.568;25.814;2023-03-08T01:26:22;10.13;;;5.43;;
59649;SDS011;46162;57.568;25.814;2023-03-08T01:28:55;10.63;;;4.95;;
59649;SDS011;46162;57.568;25.814;2023-03-08T01:31:26;11.02;;;4.93;;
59649;SDS011;46162;57.568;25.814;2023-03-08T01:33:59;10.77;;;5.68;;
59649;SDS011;46162;57.568;25.814;2023-03-08T01:36:28;13.32;;;6.13;;
59649;SDS011;46162;57.568;25.814;2023-03-08T01:38:58;10.82;;;5.72;;
59649;SDS011;46162;57.568;25.814;2023-03-08T01:41:28;11.00;;;5.50;;
59649;SDS011;46162;57.568;25.814;2023-03-08T01:43:59;10.23;;;5.82;;
59649;SDS011;46162;57.568;25.814;2023-03-08T01:46:28;12.75;;;5.43;;
59649;SDS011;46162;57.568;25.814;2023-03-08T01:49:21;11.10;;;5.75;;
59649;SDS011;46162;57.568;25.814;2023-03-08T01:51:55;11.52;;;5.63;;
59649;SDS011;46162;57.568;25.814;2023-03-08T01:54:31;11.02;;;5.45;;
59649;SDS011;46162;57.568;25.814;2023-03-08T01:57:05;11.15;;;5.68;;
59649;SDS011;46162;57.568;25.814;2023-03-08T01:59:41;11.10;;;5.97;;
59649;SDS011;46162;57.568;25.814;2023-03-08T02:02:11;12.20;;;6.03;;
59649;SDS011;46162;57.568;25.814;2023-03-08T02:04:42;9.18;;;4.88;;
59649;SDS011;46162;57.568;25.814;2023-03-08T02:07:12;11.93;;;5.55;;
59649;SDS011;46162;57.568;25.814;2023-03-08T02:09:42;10.30;;;4.88;;
59649;SDS011;46162;57.568;25.814;2023-03-08T02:12:12;10.60;;;5.68;;
59649;SDS011;46162;57.568;25.814;2023-03-08T02:14:41;10.38;;;5.32;;
59649;SDS011;46162;57.568;25.814;2023-03-08T02:17:11;9.50;;;5.70;;
59649;SDS011;46162;57.568;25.814;2023-03-08T02:19:42;10.25;;;5.15;;
59649;SDS011;46162;57.568;25.814;2023-03-08T02:22:16;11.65;;;5.65;;
59649;SDS011;46162;57.568;25.814;2023-03-08T02:24:47;9.75;;;5.25;;
59649;SDS011;46162;57.568;25.814;2023-03-08T02:27:17;10.50;;;6.20;;
59649;SDS011;46162;57.568;25.814;2023-03-08T02:29:49;10.35;;;5.53;;
59649;SDS011;46162;57.568;25.814;2023-03-08T02:32:18;9.55;;;5.10;;
59649;SDS011;46162;57.568;25.814;2023-03-08T02:34:47;11.05;;;5.75;;
59649;SDS011;46162;57.568;25.814;2023-03-08T02:37:15;14.45;;;6.13;;
59649;SDS011;46162;57.568;25.814;2023-03-08T02:39:48;11.25;;;5.40;;
59649;SDS011;46162;57.568;25.814;2023-03-08T02:42:17;11.77;;;5.75;;
59649;SDS011;46162;57.568;25.814;2023-03-08T02:44:46;11.25;;;5.70;;
59649;SDS011;46162;57.568;25.814;2023-03-08T02:47:15;11.27;;;5.13;;
59649;SDS011;46162;57.568;25.814;2023-03-08T02:49:46;11.02;;;5.85;;
59649;SDS011;46162;57.568;25.814;2023-03-08T02:52:14;8.50;;;5.00;;
59649;SDS011;46162;57.568;25.814;2023-03-08T02:54:43;10.88;;;5.53;;
59649;SDS011;46162;57.568;25.814;2023-03-08T02:57:14;10.57;;;5.22;;
59649;SDS011;46162;57.568;25.814;2023-03-08T02:59:44;12.07;;;5.90;;
59649;SDS011;46162;57.568;25.814;2023-03-08T03:02:14;10.10;;;5.63;;
59649;SDS011;46162;57.568;25.814;2023-03-08T03:04:42;12.40;;;5.28;;
59649;SDS011;46162;57.568;25.814;2023-03-08T03:07:12;8.30;;;4.85;;
59649;SDS011;46162;57.568;25.814;2023-03-08T03:09:41;10.95;;;5.22;;
59649;SDS011;46162;57.568;25.814;2023-03-08T03:12:10;10.27;;;5.25;;
59649;SDS011;46162;57.568;25.814;2023-03-08T03:14:42;8.57;;;5.30;;
59649;SDS011;46162;57.568;25.814;2023-03-08T03:19:41;10.70;;;4.80;;
59649;SDS011;46162;57.568;25.814;2023-03-08T03:22:10;8.57;;;4.75;;
59649;SDS011;46162;57.568;25.814;2023-03-08T03:24:39;11.02;;;4.93;;
59649;SDS011;46162;57.568;25.814;2023-03-08T03:27:08;8.50;;;4.85;;
59649;SDS011;46162;57.568;25.814;2023-03-08T03:29:38;10.02;;;4.95;;
59649;SDS011;46162;57.568;25.814;2023-03-08T03:32:15;9.52;;;4.90;;
59649;SDS011;46162;57.568;25.814;2023-03-08T03:34:44;9.30;;;5.68;;
59649;SDS011;46162;57.568;25.814;2023-03-08T03:37:15;9.25;;;5.18;;
59649;SDS011;46162;57.568;25.814;2023-03-08T03:39:44;8.57;;;4.22;;
59649;SDS011;46162;57.568;25.814;2023-03-08T03:42:17;9.32;;;4.70;;
59649;SDS011;46162;57.568;25.814;2023-03-08T03:44:53;10.15;;;5.10;;
59649;SDS011;46162;57.568;25.814;2023-03-08T03:47:24;10.55;;;5.60;;
59649;SDS011;46162;57.568;25.814;2023-03-08T03:49:56;12.38;;;6.18;;
59649;SDS011;46162;57.568;25.814;2023-03-08T03:52:30;11.85;;;5.43;;
59649;SDS011;46162;57.568;25.814;2023-03-08T03:55:02;13.80;;;5.18;;
59649;SDS011;46162;57.568;25.814;2023-03-08T03:57:33;10.93;;;6.28;;
59649;SDS011;46162;57.568;25.814;2023-03-08T04:00:02;11.55;;;5.60;;
59649;SDS011;46162;57.568;25.814;2023-03-08T04:02:40;9.82;;;5.38;;
59649;SDS011;46162;57.568;25.814;2023-03-08T04:05:12;11.10;;;5.13;;
59649;SDS011;46162;57.568;25.814;2023-03-08T04:07:43;9.38;;;4.50;;
59649;SDS011;46162;57.568;25.814;2023-03-08T04:10:12;11.50;;;4.35;;
59649;SDS011;46162;57.568;25.814;2023-03-08T04:12:42;8.90;;;4.63;;
59649;SDS011;46162;57.568;25.814;2023-03-08T04:15:11;10.75;;;5.20;;
59649;SDS011;46162;57.568;25.814;2023-03-08T04:17:42;10.20;;;4.43;;
59649;SDS011;46162;57.568;25.814;2023-03-08T04:22:49;9.13;;;3.42;;
59649;SDS011;46162;57.568;25.814;2023-03-08T04:25:24;8.95;;;4.30;;
59649;SDS011;46162;57.568;25.814;2023-03-08T04:27:57;8.85;;;3.28;;
59649;SDS011;46162;57.568;25.814;2023-03-08T04:30:27;8.70;;;3.42;;
59649;SDS011;46162;57.568;25.814;2023-03-08T04:33:00;9.43;;;3.67;;
59649;SDS011;46162;57.568;25.814;2023-03-08T04:35:37;6.45;;;2.78;;
59649;SDS011;46162;57.568;25.814;2023-03-08T04:38:06;7.05;;;2.75;;
59649;SDS011;46162;57.568;25.814;2023-03-08T04:40:35;9.88;;;2.95;;
59649;SDS011;46162;57.568;25.814;2023-03-08T04:43:26;11.63;;;3.25;;
59649;SDS011;46162;57.568;25.814;2023-03-08T04:45:56;7.50;;;2.10;;
59649;SDS011;46162;57.568;25.814;2023-03-08T04:48:26;6.40;;;2.20;;
59649;SDS011;46162;57.568;25.814;2023-03-08T04:53:27;6.80;;;1.75;;
59649;SDS011;46162;57.568;25.814;2023-03-08T04:55:56;5.88;;;1.40;;
59649;SDS011;46162;57.568;25.814;2023-03-08T04:58:27;10.23;;;1.47;;
59649;SDS011;46162;57.568;25.814;2023-03-08T05:00:56;7.03;;;1.83;;
59649;SDS011;46162;57.568;25.814;2023-03-08T05:03:26;6.30;;;1.10;;
59649;SDS011;46162;57.568;25.814;2023-03-08T05:05:55;6.20;;;1.35;;
59649;SDS011;46162;57.568;25.814;2023-03-08T05:08:24;5.10;;;1.13;;
59649;SDS011;46162;57.568;25.814;2023-03-08T05:10:54;7.68;;;1.17;;
59649;SDS011;46162;57.568;25.814;2023-03-08T05:13:31;4.50;;;1.25;;
59649;SDS011;46162;57.568;25.814;2023-03-08T05:18:32;4.03;;;0.70;;
59649;SDS011;46162;57.568;25.814;2023-03-08T05:21:02;4.20;;;1.00;;
59649;SDS011;46162;57.568;25.814;2023-03-08T05:23:33;5.28;;;1.02;;
59649;SDS011;46162;57.568;25.814;2023-03-08T05:26:03;4.05;;;0.90;;
59649;SDS011;46162;57.568;25.814;2023-03-08T05:28:34;4.80;;;0.93;;
59649;SDS011;46162;57.568;25.814;2023-03-08T05:31:05;5.43;;;1.35;;
59649;SDS011;46162;57.568;25.814;2023-03-08T05:33:38;5.20;;;1.00;;
59649;SDS011;46162;57.568;25.814;2023-03-08T05:36:07;5.50;;;0.88;;
59649;SDS011;46162;57.568;25.814;2023-03-08T05:38:39;8.07;;;1.30;;
59649;SDS011;46162;57.568;25.814;2023-03-08T05:41:10;4.68;;;0.73;;
59649;SDS011;46162;57.568;25.814;2023-03-08T05:43:44;5.25;;;1.13;;
59649;SDS011;46162;57.568;25.814;2023-03-08T05:46:14;3.95;;;0.77;;
59649;SDS011;46162;57.568;25.814;2023-03-08T05:48:47;5.85;;;1.05;;
59649;SDS011;46162;57.568;25.814;2023-03-08T05:51:17;3.40;;;0.90;;
59649;SDS011;46162;57.568;25.814;2023-03-08T05:53:46;7.97;;;1.02;;
59649;SDS011;46162;57.568;25.814;2023-03-08T05:59:07;5.75;;;1.00;;
59649;SDS011;46162;57.568;25.814;2023-03-08T06:01:36;4.82;;;0.80;;
59649;SDS011;46162;57.568;25.814;2023-03-08T06:04:30;8.18;;;0.63;;
59649;SDS011;46162;57.568;25.814;2023-03-08T06:07:00;5.32;;;0.65;;
59649;SDS011;46162;57.568;25.814;2023-03-08T06:09:34;6.43;;;1.20;;
59649;SDS011;46162;57.568;25.814;2023-03-08T06:12:05;5.00;;;0.57;;
59649;SDS011;46162;57.568;25.814;2023-03-08T06:14:35;8.25;;;1.27;;
59649;SDS011;46162;57.568;25.814;2023-03-08T06:17:05;4.10;;;0.73;;
59649;SDS011;46162;57.568;25.814;2023-03-08T06:19:40;4.38;;;0.73;;
59649;SDS011;46162;57.568;25.814;2023-03-08T06:22:10;3.10;;;0.60;;
59649;SDS011;46162;57.568;25.814;2023-03-08T06:24:39;5.22;;;0.82;;
59649;SDS011;46162;57.568;25.814;2023-03-08T06:27:08;8.43;;;0.93;;
59649;SDS011;46162;57.568;25.814;2023-03-08T06:29:40;8.13;;;1.15;;
59649;SDS011;46162;57.568;25.814;2023-03-08T06:32:09;11.13;;;1.23;;
59649;SDS011;46162;57.568;25.814;2023-03-08T06:34:38;3.75;;;0.90;;
59649;SDS011;46162;57.568;25.814;2023-03-08T06:37:09;6.63;;;1.33;;
59649;SDS011;46162;57.568;25.814;2023-03-08T06:39:38;4.00;;;0.85;;
59649;SDS011;46162;57.568;25.814;2023-03-08T06:42:08;5.50;;;0.60;;
59649;SDS011;46162;57.568;25.814;2023-03-08T06:44:36;5.53;;;0.68;;
59649;SDS011;46162;57.568;25.814;2023-03-08T06:47:05;5.90;;;1.00;;
59649;SDS011;46162;57.568;25.814;2023-03-08T06:49:34;4.80;;;0.73;;
59649;SDS011;46162;57.568;25.814;2023-03-08T06:52:05;6.35;;;0.75;;
59649;SDS011;46162;57.568;25.814;2023-03-08T06:54:34;5.30;;;0.80;;
59649;SDS011;46162;57.568;25.814;2023-03-08T06:57:04;6.63;;;0.70;;
59649;SDS011;46162;57.568;25.814;2023-03-08T06:59:33;4.55;;;0.70;;
59649;SDS011;46162;57.568;25.814;2023-03-08T07:02:02;4.32;;;0.70;;
59649;SDS011;46162;57.568;25.814;2023-03-08T07:04:31;8.05;;;0.90;;
59649;SDS011;46162;57.568;25.814;2023-03-08T07:06:59;8.70;;;0.70;;
59649;SDS011;46162;57.568;25.814;2023-03-08T07:09:30;3.83;;;0.43;;
59649;SDS011;46162;57.568;25.814;2023-03-08T07:11:59;4.25;;;0.40;;
59649;SDS011;46162;57.568;25.814;2023-03-08T07:14:27;4.07;;;0.50;;
59649;SDS011;46162;57.568;25.814;2023-03-08T07:16:56;3.75;;;0.50;;
59649;SDS011;46162;57.568;25.814;2023-03-08T07:19:25;3.80;;;0.40;;
59649;SDS011;46162;57.568;25.814;2023-03-08T07:21:54;4.63;;;0.40;;
59649;SDS011;46162;57.568;25.814;2023-03-08T07:24:23;6.65;;;0.77;;
59649;SDS011;46162;57.568;25.814;2023-03-08T07:26:54;2.85;;;0.40;;
59649;SDS011;46162;57.568;25.814;2023-03-08T07:29:23;2.73;;;0.53;;
59649;SDS011;46162;57.568;25.814;2023-03-08T07:31:52;5.75;;;0.63;;
59649;SDS011;46162;57.568;25.814;2023-03-08T07:34:21;6.28;;;0.68;;
59649;SDS011;46162;57.568;25.814;2023-03-08T07:36:49;5.43;;;0.77;;
59649;SDS011;46162;57.568;25.814;2023-03-08T07:39:18;6.70;;;0.65;;
59649;SDS011;46162;57.568;25.814;2023-03-08T07:41:49;6.25;;;0.80;;
59649;SDS011;46162;57.568;25.814;2023-03-08T07:44:19;4.07;;;0.68;;
59649;SDS011;46162;57.568;25.814;2023-03-08T07:46:48;4.05;;;0.35;;
59649;SDS011;46162;57.568;25.814;2023-03-08T07:49:17;5.03;;;0.55;;
59649;SDS011;46162;57.568;25.814;2023-03-08T07:51:47;4.10;;;0.50;;
59649;SDS011;46162;57.568;25.814;2023-03-08T07:56:48;4.60;;;0.40;;
59649;SDS011;46162;57.568;25.814;2023-03-08T07:59:20;4.65;;;0.40;;
59649;SDS011;46162;57.568;25.814;2023-03-08T08:01:49;2.33;;;0.30;;
59649;SDS011;46162;57.568;25.814;2023-03-08T08:04:18;6.43;;;0.60;;
59649;SDS011;46162;57.568;25.814;2023-03-08T08:09:17;8.65;;;0.82;;
59649;SDS011;46162;57.568;25.814;2023-03-08T08:11:46;5.05;;;0.52;;
59649;SDS011;46162;57.568;25.814;2023-03-08T08:14:15;4.07;;;0.20;;
59649;SDS011;46162;57.568;25.814;2023-03-08T08:16:45;2.72;;;0.50;;
59649;SDS011;46162;57.568;25.814;2023-03-08T08:19:14;4.43;;;0.47;;
59649;SDS011;46162;57.568;25.814;2023-03-08T08:21:43;5.38;;;0.80;;
59649;SDS011;46162;57.568;25.814;2023-03-08T08:24:13;5.65;;;0.73;;
59649;SDS011;46162;57.568;25.814;2023-03-08T08:26:42;7.22;;;0.57;;
59649;SDS011;46162;57.568;25.814;2023-03-08T08:29:11;4.50;;;0.52;;
59649;SDS011;46162;57.568;25.814;2023-03-08T08:31:40;4.07;;;0.25;;
59649;SDS011;46162;57.568;25.814;2023-03-08T08:34:10;3.75;;;0.50;;
59649;SDS011;46162;57.568;25.814;2023-03-08T08:36:39;3.97;;;0.47;;
59649;SDS011;46162;57.568;25.814;2023-03-08T08:39:08;6.57;;;0.70;;
59649;SDS011;46162;57.568;25.814;2023-03-08T08:41:37;7.03;;;0.90;;
59649;SDS011;46162;57.568;25.814;2023-03-08T08:44:06;4.55;;;0.57;;
59649;SDS011;46162;57.568;25.814;2023-03-08T08:46:35;3.05;;;0.57;;
59649;SDS011;46162;57.568;25.814;2023-03-08T08:49:04;7.20;;;0.57;;
59649;SDS011;46162;57.568;25.814;2023-03-08T08:51:34;4.30;;;0.52;;
59649;SDS011;46162;57.568;25.814;2023-03-08T08:54:03;5.53;;;0.50;;
59649;SDS011;46162;57.568;25.814;2023-03-08T08:56:32;6.75;;;1.00;;
59649;SDS011;46162;57.568;25.814;2023-03-08T08:59:08;5.00;;;0.45;;
59649;SDS011;46162;57.568;25.814;2023-03-08T09:01:39;4.35;;;0.43;;
59649;SDS011;46162;57.568;25.814;2023-03-08T09:04:10;3.95;;;0.60;;
59649;SDS011;46162;57.568;25.814;2023-03-08T09:06:41;4.68;;;0.43;;
59649;SDS011;46162;57.568;25.814;2023-03-08T09:11:39;6.40;;;0.32;;
59649;SDS011;46162;57.568;25.814;2023-03-08T09:14:20;2.70;;;0.55;;
59649;SDS011;46162;57.568;25.814;2023-03-08T09:16:48;7.95;;;0.50;;
59649;SDS011;46162;57.568;25.814;2023-03-08T09:19:18;5.15;;;0.70;;
59649;SDS011;46162;57.568;25.814;2023-03-08T09:21:49;3.42;;;0.57;;
59649;SDS011;46162;57.568;25.814;2023-03-08T09:24:17;5.00;;;0.38;;
59649;SDS011;46162;57.568;25.814;2023-03-08T09:26:46;4.25;;;0.45;;
59649;SDS011;46162;57.568;25.814;2023-03-08T09:29:15;3.45;;;0.47;;
59649;SDS011;46162;57.568;25.814;2023-03-08T09:31:44;4.00;;;0.70;;
59649;SDS011;46162;57.568;25.814;2023-03-08T09:34:13;4.18;;;0.60;;
59649;SDS011;46162;57.568;25.814;2023-03-08T09:36:42;2.50;;;0.45;;
59649;SDS011;46162;57.568;25.814;2023-03-08T09:39:13;4.10;;;0.50;;
59649;SDS011;46162;57.568;25.814;2023-03-08T09:41:47;5.13;;;0.77;;
59649;SDS011;46162;57.568;25.814;2023-03-08T09:47:31;6.38;;;0.80;;
59649;SDS011;46162;57.568;25.814;2023-03-08T09:50:30;3.10;;;0.30;;
59649;SDS011;46162;57.568;25.814;2023-03-08T09:53:03;5.55;;;0.60;;
59649;SDS011;46162;57.568;25.814;2023-03-08T09:55:42;4.10;;;0.30;;
59649;SDS011;46162;57.568;25.814;2023-03-08T09:58:16;2.47;;;0.38;;
59649;SDS011;46162;57.568;25.814;2023-03-08T10:00:52;3.92;;;0.57;;
59649;SDS011;46162;57.568;25.814;2023-03-08T10:03:29;5.57;;;0.40;;
59649;SDS011;46162;57.568;25.814;2023-03-08T10:06:29;5.07;;;0.70;;
59649;SDS011;46162;57.568;25.814;2023-03-08T10:09:05;4.35;;;0.52;;
59649;SDS011;46162;57.568;25.814;2023-03-08T10:11:49;4.60;;;0.50;;
59649;SDS011;46162;57.568;25.814;2023-03-08T10:14:25;4.95;;;0.82;;
59649;SDS011;46162;57.568;25.814;2023-03-08T10:16:59;6.53;;;0.50;;
59649;SDS011;46162;57.568;25.814;2023-03-08T10:19:34;6.28;;;0.65;;
59649;SDS011;46162;57.568;25.814;2023-03-08T10:22:08;3.80;;;0.38;;
59649;SDS011;46162;57.568;25.814;2023-03-08T10:24:44;3.90;;;0.50;;
59649;SDS011;46162;57.568;25.814;2023-03-08T10:27:23;3.67;;;0.30;;
59649;SDS011;46162;57.568;25.814;2023-03-08T10:29:54;1.92;;;0.30;;
59649;SDS011;46162;57.568;25.814;2023-03-08T10:32:25;3.75;;;0.47;;
59649;SDS011;46162;57.568;25.814;2023-03-08T10:37:33;4.60;;;0.50;;
59649;SDS011;46162;57.568;25.814;2023-03-08T10:40:16;4.25;;;0.52;;
59649;SDS011;46162;57.568;25.814;2023-03-08T10:42:52;1.83;;;0.20;;
59649;SDS011;46162;57.568;25.814;2023-03-08T10:45:27;4.82;;;0.52;;
59649;SDS011;46162;57.568;25.814;2023-03-08T10:47:57;9.07;;;2.33;;
59649;SDS011;46162;57.568;25.814;2023-03-08T10:50:30;2.58;;;0.30;;
59649;SDS011;46162;57.568;25.814;2023-03-08T10:53:08;3.92;;;0.22;;
59649;SDS011;46162;57.568;25.814;2023-03-08T10:55:43;3.40;;;0.30;;
59649;SDS011;46162;57.568;25.814;2023-03-08T10:58:31;3.97;;;0.35;;
59649;SDS011;46162;57.568;25.814;2023-03-08T11:01:03;2.58;;;0.30;;
59649;SDS011;46162;57.568;25.814;2023-03-08T11:03:34;4.20;;;0.30;;
59649;SDS011;46162;57.568;25.814;2023-03-08T11:06:03;1.65;;;0.22;;
59649;SDS011;46162;57.568;25.814;2023-03-08T11:08:49;2.60;;;0.20;;
59649;SDS011;46162;57.568;25.814;2023-03-08T11:11:20;5.03;;;0.40;;
59649;SDS011;46162;57.568;25.814;2023-03-08T11:13:51;1.77;;;0.30;;
59649;SDS011;46162;57.568;25.814;2023-03-08T11:16:33;5.20;;;0.20;;
59649;SDS011;46162;57.568;25.814;2023-03-08T11:21:55;3.58;;;0.43;;
59649;SDS011;46162;57.568;25.814;2023-03-08T11:24:34;3.67;;;0.55;;
59649;SDS011;46162;57.568;25.814;2023-03-08T11:27:20;2.53;;;0.10;;
59649;SDS011;46162;57.568;25.814;2023-03-08T11:30:05;2.25;;;0.20;;
59649;SDS011;46162;57.568;25.814;2023-03-08T11:32:51;1.30;;;0.10;;
59649;SDS011;46162;57.568;25.814;2023-03-08T11:35:31;1.63;;;0.20;;
59649;SDS011;46162;57.568;25.814;2023-03-08T11:38:06;3.75;;;0.20;;
59649;SDS011;46162;57.568;25.814;2023-03-08T11:40:44;1.85;;;0.10;;
59649;SDS011;46162;57.568;25.814;2023-03-08T11:43:22;3.22;;;0.20;;
59649;SDS011;46162;57.568;25.814;2023-03-08T11:46:15;4.00;;;0.35;;
59649;SDS011;46162;57.568;25.814;2023-03-08T11:48:55;2.63;;;0.10;;
59649;SDS011;46162;57.568;25.814;2023-03-08T11:51:33;2.75;;;0.30;;
59649;SDS011;46162;57.568;25.814;2023-03-08T11:54:13;1.67;;;0.30;;
59649;SDS011;46162;57.568;25.814;2023-03-08T11:56:46;2.65;;;0.25;;
59649;SDS011;46162;57.568;25.814;2023-03-08T11:59:23;2.70;;;0.20;;
59649;SDS011;46162;57.568;25.814;2023-03-08T12:02:01;3.38;;;0.40;;
59649;SDS011;46162;57.568;25.814;2023-03-08T12:04:40;3.03;;;0.40;;
59649;SDS011;46162;57.568;25.814;2023-03-08T12:07:15;2.80;;;0.30;;
59649;SDS011;46162;57.568;25.814;2023-03-08T12:09:59;5.70;;;0.50;;
59649;SDS011;46162;57.568;25.814;2023-03-08T12:15:06;3.83;;;0.30;;
59649;SDS011;46162;57.568;25.814;2023-03-08T12:17:45;2.88;;;0.35;;
59649;SDS011;46162;57.568;25.814;2023-03-08T12:20:18;5.22;;;0.40;;
59649;SDS011;46162;57.568;25.814;2023-03-08T12:22:50;3.42;;;0.30;;
59649;SDS011;46162;57.568;25.814;2023-03-08T12:25:27;3.78;;;0.43;;
59649;SDS011;46162;57.568;25.814;2023-03-08T12:28:00;3.72;;;0.40;;
59649;SDS011;46162;57.568;25.814;2023-03-08T12:30:48;2.20;;;0.20;;
59649;SDS011;46162;57.568;25.814;2023-03-08T12:33:31;1.88;;;0.20;;
59649;SDS011;46162;57.568;25.814;2023-03-08T12:36:02;5.57;;;0.43;;
59649;SDS011;46162;57.568;25.814;2023-03-08T12:38:34;4.05;;;0.47;;
59649;SDS011;46162;57.568;25.814;2023-03-08T12:41:05;3.08;;;0.20;;
59649;SDS011;46162;57.568;25.814;2023-03-08T12:43:57;4.38;;;0.50;;
59649;SDS011;46162;57.568;25.814;2023-03-08T12:46:27;5.32;;;0.40;;
59649;SDS011;46162;57.568;25.814;2023-03-08T12:49:31;3.90;;;0.40;;
59649;SDS011;46162;57.568;25.814;2023-03-08T12:52:04;5.20;;;0.20;;
59649;SDS011;46162;57.568;25.814;2023-03-08T12:54:34;1.52;;;0.20;;
59649;SDS011;46162;57.568;25.814;2023-03-08T12:57:12;3.67;;;0.10;;
59649;SDS011;46162;57.568;25.814;2023-03-08T12:59:46;2.50;;;0.10;;
59649;SDS011;46162;57.568;25.814;2023-03-08T13:05:16;3.03;;;0.40;;
59649;SDS011;46162;57.568;25.814;2023-03-08T13:08:00;3.65;;;0.17;;
59649;SDS011;46162;57.568;25.814;2023-03-08T13:11:00;2.13;;;0.10;;
59649;SDS011;46162;57.568;25.814;2023-03-08T13:13:38;2.55;;;0.10;;
59649;SDS011;46162;57.568;25.814;2023-03-08T13:16:28;5.93;;;0.20;;
59649;SDS011;46162;57.568;25.814;2023-03-08T13:19:00;3.28;;;0.10;;
59649;SDS011;46162;57.568;25.814;2023-03-08T13:21:37;2.92;;;0.20;;
59649;SDS011;46162;57.568;25.814;2023-03-08T13:24:39;5.35;;;0.10;;
59649;SDS011;46162;57.568;25.814;2023-03-08T13:27:35;4.78;;;0.17;;
59649;SDS011;46162;57.568;25.814;2023-03-08T13:30:17;3.53;;;0.10;;
59649;SDS011;46162;57.568;25.814;2023-03-08T13:32:50;0.80;;;0.10;;
59649;SDS011;46162;57.568;25.814;2023-03-08T13:35:20;3.90;;;0.20;;
59649;SDS011;46162;57.568;25.814;2023-03-08T13:40:51;2.80;;;0.17;;
59649;SDS011;46162;57.568;25.814;2023-03-08T13:43:30;2.33;;;0.10;;
59649;SDS011;46162;57.568;25.814;2023-03-08T13:46:01;3.35;;;0.17;;
59649;SDS011;46162;57.568;25.814;2023-03-08T13:48:32;4.38;;;0.20;;
59649;SDS011;46162;57.568;25.814;2023-03-08T13:51:03;2.53;;;0.20;;
59649;SDS011;46162;57.568;25.814;2023-03-08T13:53:35;3.17;;;0.20;;
59649;SDS011;46162;57.568;25.814;2023-03-08T13:56:06;2.60;;;0.20;;
59649;SDS011;46162;57.568;25.814;2023-03-08T13:58:43;3.00;;;0.10;;
59649;SDS011;46162;57.568;25.814;2023-03-08T14:01:14;5.07;;;0.30;;
59649;SDS011;46162;57.568;25.814;2023-03-08T14:03:45;3.83;;;0.20;;
59649;SDS011;46162;57.568;25.814;2023-03-08T14:06:17;2.90;;;0.13;;
59649;SDS011;46162;57.568;25.814;2023-03-08T14:08:50;6.00;;;0.20;;
59649;SDS011;46162;57.568;25.814;2023-03-08T14:11:21;3.05;;;0.30;;
59649;SDS011;46162;57.568;25.814;2023-03-08T14:13:54;3.60;;;0.73;;
59649;SDS011;46162;57.568;25.814;2023-03-08T14:16:26;3.75;;;0.32;;
59649;SDS011;46162;57.568;25.814;2023-03-08T14:19:07;2.78;;;0.32;;
59649;SDS011;46162;57.568;25.814;2023-03-08T14:21:37;5.20;;;0.50;;
59649;SDS011;46162;57.568;25.814;2023-03-08T14:24:22;4.40;;;0.47;;
59649;SDS011;46162;57.568;25.814;2023-03-08T14:26:56;4.53;;;0.38;;
59649;SDS011;46162;57.568;25.814;2023-03-08T14:29:27;9.77;;;1.08;;
59649;SDS011;46162;57.568;25.814;2023-03-08T14:32:03;5.38;;;0.82;;
59649;SDS011;46162;57.568;25.814;2023-03-08T14:34:34;6.78;;;0.75;;
59649;SDS011;46162;57.568;25.814;2023-03-08T14:37:05;9.68;;;0.63;;
59649;SDS011;46162;57.568;25.814;2023-03-08T14:39:43;7.07;;;0.77;;
59649;SDS011;46162;57.568;25.814;2023-03-08T14:42:17;7.93;;;0.70;;
59649;SDS011;46162;57.568;25.814;2023-03-08T14:44:50;11.63;;;0.82;;
59649;SDS011;46162;57.568;25.814;2023-03-08T14:49:54;4.20;;;0.63;;
59649;SDS011;46162;57.568;25.814;2023-03-08T14:52:25;4.43;;;0.73;;
59649;SDS011;46162;57.568;25.814;2023-03-08T14:54:59;6.93;;;0.85;;
59649;SDS011;46162;57.568;25.814;2023-03-08T14:57:30;8.50;;;0.50;;
59649;SDS011;46162;57.568;25.814;2023-03-08T15:00:03;6.80;;;0.85;;
59649;SDS011;46162;57.568;25.814;2023-03-08T15:02:39;5.25;;;0.80;;
59649;SDS011;46162;57.568;25.814;2023-03-08T15:05:12;5.85;;;0.80;;
59649;SDS011;46162;57.568;25.814;2023-03-08T15:07:55;4.55;;;0.63;;
59649;SDS011;46162;57.568;25.814;2023-03-08T15:10:33;4.35;;;0.95;;
59649;SDS011;46162;57.568;25.814;2023-03-08T15:13:09;5.22;;;1.38;;
59649;SDS011;46162;57.568;25.814;2023-03-08T15:15:40;3.42;;;0.85;;
59649;SDS011;46162;57.568;25.814;2023-03-08T15:18:09;6.55;;;1.15;;
59649;SDS011;46162;57.568;25.814;2023-03-08T15:20:39;5.20;;;0.85;;
59649;SDS011;46162;57.568;25.814;2023-03-08T15:23:13;5.80;;;1.23;;
59649;SDS011;46162;57.568;25.814;2023-03-08T15:26:01;6.55;;;1.10;;
59649;SDS011;46162;57.568;25.814;2023-03-08T15:28:31;11.68;;;1.92;;
59649;SDS011;46162;57.568;25.814;2023-03-08T15:31:00;6.47;;;1.67;;
59649;SDS011;46162;57.568;25.814;2023-03-08T15:33:31;6.82;;;1.70;;
59649;SDS011;46162;57.568;25.814;2023-03-08T15:36:00;8.20;;;1.90;;
59649;SDS011;46162;57.568;25.814;2023-03-08T15:38:29;7.82;;;1.92;;
59649;SDS011;46162;57.568;25.814;2023-03-08T15:40:58;5.30;;;1.45;;
59649;SDS011;46162;57.568;25.814;2023-03-08T15:43:31;6.10;;;1.65;;
59649;SDS011;46162;57.568;25.814;2023-03-08T15:46:00;6.45;;;1.67;;
59649;SDS011;46162;57.568;25.814;2023-03-08T15:48:29;6.63;;;1.90;;